Time;durP1;ratioP1;P1;durP2;ratioP2;P2;SDS_P1;SDS_P2;PMS_P1;PMS_P2;Temp;Humidity;BMP_temperature;BMP_pressure;BME280_temperature;BME280_humidity;BME280_pressure;Samples;Min_cycle;Max_cycle;Signal;HPM_P1;HPM_P2
2022/12/03 00:00:27;;;;;;;;;29.50;23.50;;;;;7.50;76.07;99892.81;5056411;28;46123;-69
2022/12/03 00:02:53;;;;;;;;;40.00;35.25;;;;;7.32;76.17;99865.44;5055884;28;45482;-69
2022/12/03 00:05:18;;;;;;;;;32.50;29.00;;;;;7.46;76.17;99885.75;5055843;28;45494;-69
2022/12/03 00:07:44;;;;;;;;;40.00;35.25;;;;;7.41;76.17;99885.63;5056016;28;45505;-72
2022/12/03 00:10:10;;;;;;;;;35.25;28.00;;;;;7.24;75.94;99856.53;5055740;28;46141;-70
2022/12/03 00:12:36;;;;;;;;;35.75;32.75;;;;;7.37;76.28;99879.44;5055848;28;45582;-68
2022/12/03 00:15:01;;;;;;;;;32.75;31.00;;;;;7.40;76.12;99864.78;5056162;28;45562;-73
2022/12/03 00:17:27;;;;;;;;;36.50;32.50;;;;;7.42;75.89;99861.41;5053754;28;45527;-68
2022/12/03 00:19:52;;;;;;;;;33.25;29.00;;;;;7.24;76.01;99825.34;5055634;28;45508;-69
2022/12/03 00:22:18;;;;;;;;;29.50;27.25;;;;;7.45;75.90;99852.81;5055727;28;45506;-67
2022/12/03 00:24:44;;;;;;;;;33.00;29.25;;;;;7.46;75.93;99850.28;5055731;28;45523;-68
2022/12/03 00:27:09;;;;;;;;;22.00;18.50;;;;;7.17;75.82;99787.00;5056076;28;45507;-68
2022/12/03 00:29:35;;;;;;;;;28.50;23.75;;;;;7.46;76.20;99845.09;5055508;28;45679;-68
2022/12/03 00:32:00;;;;;;;;;28.50;25.25;;;;;7.47;76.06;99843.38;5056041;28;45490;-68
2022/12/03 00:34:26;;;;;;;;;28.50;26.50;;;;;7.47;76.14;99839.03;5055833;28;45354;-67
2022/12/03 00:36:52;;;;;;;;;24.50;22.50;;;;;7.48;76.38;99824.31;5056172;28;45831;-72
2022/12/03 00:39:17;;;;;;;;;24.50;22.75;;;;;7.48;76.08;99830.44;5055651;28;45866;-67
2022/12/03 00:41:43;;;;;;;;;29.50;25.00;;;;;7.40;75.99;99805.91;5054775;28;45361;-71
2022/12/03 00:44:09;;;;;;;;;23.25;20.25;;;;;7.47;76.22;99819.97;5055789;28;45476;-68
2022/12/03 00:46:34;;;;;;;;;22.50;19.50;;;;;7.47;76.22;99823.44;5055768;28;45403;-67
2022/12/03 00:49:00;;;;;;;;;26.75;24.25;;;;;7.48;76.19;99816.53;5055573;28;46148;-68
2022/12/03 00:51:25;;;;;;;;;26.50;23.00;;;;;7.50;76.12;99814.84;5055190;28;45503;-69
2022/12/03 00:53:51;;;;;;;;;24.00;22.25;;;;;7.52;75.97;99820.97;5052631;28;45377;-68
2022/12/03 00:56:16;;;;;;;;;27.75;23.75;;;;;7.50;76.28;99815.75;5055566;28;45374;-67
2022/12/03 00:58:42;;;;;;;;;29.25;23.75;;;;;7.44;76.48;99797.38;5055578;28;45417;-70
2022/12/03 01:01:08;;;;;;;;;17.25;14.75;;;;;7.21;76.29;99765.50;5055327;28;45474;-68
2022/12/03 01:03:33;;;;;;;;;20.25;19.00;;;;;7.46;76.27;99794.81;5055457;28;45361;-68
2022/12/03 01:05:59;;;;;;;;;25.25;21.75;;;;;7.47;76.43;99801.78;5055963;28;45409;-72
2022/12/03 01:08:24;;;;;;;;;26.25;23.50;;;;;7.49;76.49;99788.00;5052372;28;46029;-71
2022/12/03 01:10:50;;;;;;;;;27.25;23.00;;;;;7.47;76.60;99781.88;5055043;28;45299;-69
2022/12/03 01:13:15;;;;;;;;;27.50;25.25;;;;;7.45;76.44;99785.25;5055278;28;45387;-72
2022/12/03 01:15:41;;;;;;;;;27.00;25.25;;;;;7.48;76.40;99787.94;5055446;28;45310;-69
2022/12/03 01:18:06;;;;;;;;;23.25;22.25;;;;;7.52;76.29;99779.41;5054932;28;45820;-70
2022/12/03 01:20:32;;;;;;;;;23.25;22.75;;;;;7.52;76.10;99782.91;5055516;28;45325;-68
2022/12/03 01:22:57;;;;;;;;;12.00;9.00;;;;;7.49;76.38;99780.19;5055236;28;45474;-68
2022/12/03 01:25:23;;;;;;;;;22.25;21.00;;;;;7.50;76.28;99770.66;5052297;28;45579;-70
2022/12/03 01:27:49;;;;;;;;;21.50;18.75;;;;;7.47;76.77;99773.19;5054809;28;45425;-68
2022/12/03 01:30:14;;;;;;;;;26.50;19.25;;;;;7.46;76.57;99768.81;5055030;28;45626;-70
2022/12/03 01:32:40;;;;;;;;;20.00;17.75;;;;;7.43;76.74;99777.41;5054991;28;45410;-70
2022/12/03 01:35:05;;;;;;;;;22.25;18.00;;;;;7.18;76.52;99721.22;5055100;28;45588;-68
2022/12/03 01:37:31;;;;;;;;;25.25;24.00;;;;;7.44;76.55;99770.50;5055023;28;45893;-69
2022/12/03 01:39:56;;;;;;;;;25.25;23.75;;;;;7.37;77.17;99765.13;5054748;28;45519;-70
2022/12/03 01:42:30;;;;;;;;;32.75;28.75;;;;;7.33;77.09;99768.47;5055018;28;45438;-70
2022/12/03 01:44:57;;;;;;;;;38.75;35.50;;;;;7.34;77.00;99758.94;5054875;28;45466;-71
2022/12/03 01:47:40;;;;;;;;;32.50;29.25;;;;;7.37;76.97;99764.25;5054640;28;46287;-71
2022/12/03 01:50:15;;;;;;;;;35.25;30.50;;;;;7.39;76.78;99772.09;5054584;28;45350;-69
2022/12/03 01:52:41;;;;;;;;;35.50;33.50;;;;;7.34;77.19;99765.03;5053071;28;45521;-69
2022/12/03 01:55:13;;;;;;;;;32.75;30.75;;;;;7.38;77.17;99765.97;5057560;28;45639;-70
2022/12/03 01:57:42;;;;;;;;;38.50;32.00;;;;;7.26;77.01;99745.75;5055208;28;46376;-71
2022/12/03 02:00:34;;;;;;;;;30.00;28.00;;;;;7.34;76.86;99764.13;5055259;28;45404;-73
2022/12/03 02:03:01;;;;;;;;;36.25;30.25;;;;;7.35;76.96;99765.91;5055859;28;45631;-73
2022/12/03 02:05:31;;;;;;;;;30.75;30.00;;;;;7.39;76.81;99761.69;5058041;28;45571;-69
2022/12/03 02:07:58;;;;;;;;;37.75;32.50;;;;;7.35;76.90;99766.78;5057876;28;45981;-72
2022/12/03 02:10:33;;;;;;;;;41.00;35.50;;;;;7.37;76.84;99761.63;5058153;28;45328;-69
2022/12/03 02:13:09;;;;;;;;;28.00;24.00;;;;;7.40;76.75;99751.34;5058160;28;45788;-71
2022/12/03 02:15:37;;;;;;;;;28.75;25.25;;;;;7.39;76.45;99752.19;5056174;28;45389;-75
2022/12/03 02:18:03;;;;;;;;;32.75;29.50;;;;;7.42;76.73;99754.88;5064986;28;46324;-69
2022/12/03 02:20:32;;;;;;;;;25.00;21.50;;;;;7.40;76.66;99756.56;5057899;28;45263;-69
2022/12/03 02:23:11;;;;;;;;;28.50;27.75;;;;;7.35;76.67;99750.31;5057897;28;46822;-72
2022/12/03 02:25:37;;;;;;;;;33.00;26.50;;;;;7.39;76.73;99751.31;5056478;28;45513;-68
2022/12/03 02:28:04;;;;;;;;;32.25;28.25;;;;;7.37;76.71;99749.53;5057613;28;46253;-69
2022/12/03 02:30:30;;;;;;;;;39.00;33.50;;;;;7.36;76.61;99744.28;5057732;28;45533;-69
2022/12/03 02:32:57;;;;;;;;;24.25;21.50;;;;;7.39;76.46;99744.38;5057502;28;45381;-68
2022/12/03 02:35:26;;;;;;;;;23.25;21.00;;;;;7.41;76.51;99755.69;5057769;28;46834;-70
2022/12/03 02:37:58;;;;;;;;;24.25;22.50;;;;;7.44;76.77;99753.22;5057347;28;46295;-68
2022/12/03 02:40:27;;;;;;;;;22.00;18.50;;;;;7.47;76.46;99749.81;5057193;28;45497;-68
2022/12/03 02:42:56;;;;;;;;;30.25;25.25;;;;;7.44;76.95;99742.81;5057424;28;45412;-71
2022/12/03 02:45:29;;;;;;;;;27.00;23.25;;;;;7.24;76.97;99705.84;5056131;28;45406;-70
2022/12/03 02:47:57;;;;;;;;;22.75;22.25;;;;;7.50;77.04;99747.28;5055298;28;45486;-70
2022/12/03 02:50:28;;;;;;;;;24.25;23.00;;;;;7.53;77.09;99742.19;5057377;28;45418;-73
2022/12/03 02:52:55;;;;;;;;;29.75;25.50;;;;;7.52;77.11;99743.91;5055838;28;45317;-69
2022/12/03 02:55:22;;;;;;;;;31.25;27.25;;;;;7.43;76.81;99735.84;5059062;28;45507;-70
2022/12/03 02:57:49;;;;;;;;;33.00;28.00;;;;;7.43;77.14;99742.75;5058594;28;45543;-70
2022/12/03 03:00:16;;;;;;;;;30.75;24.50;;;;;7.43;77.13;99735.84;5058571;28;45407;-68
2022/12/03 03:02:44;;;;;;;;;30.00;24.50;;;;;7.41;77.70;99736.63;5057543;28;45340;-68
2022/12/03 03:05:11;;;;;;;;;24.50;23.25;;;;;7.42;78.10;99728.91;5058418;28;45357;-68
2022/12/03 03:07:37;;;;;;;;;22.25;20.00;;;;;7.43;77.85;99729.78;5058535;28;45480;-69
2022/12/03 03:10:05;;;;;;;;;27.50;24.25;;;;;7.49;77.68;99732.53;5058757;28;45454;-68
2022/12/03 03:12:32;;;;;;;;;25.75;23.50;;;;;7.53;77.88;99730.06;5058764;28;45389;-69
2022/12/03 03:14:58;;;;;;;;;26.25;22.50;;;;;7.54;77.79;99729.25;5058826;28;45422;-69
2022/12/03 03:17:24;;;;;;;;;27.25;25.50;;;;;7.41;77.48;99701.13;5058443;28;46331;-70
2022/12/03 03:19:50;;;;;;;;;25.25;22.50;;;;;7.60;77.38;99725.03;5058626;28;45467;-69
2022/12/03 03:22:16;;;;;;;;;27.00;24.25;;;;;7.54;77.84;99718.84;5058605;28;45316;-68
2022/12/03 03:24:41;;;;;;;;;24.75;22.75;;;;;7.51;77.63;99721.34;5058785;28;45309;-69
2022/12/03 03:27:07;;;;;;;;;29.00;25.00;;;;;7.50;77.48;99716.09;5058170;28;45286;-68
2022/12/03 03:29:33;;;;;;;;;23.25;22.00;;;;;7.46;77.53;99703.84;5058572;28;45571;-70
2022/12/03 03:32:00;;;;;;;;;22.00;21.50;;;;;7.51;77.08;99710.94;5058417;28;45239;-68
2022/12/03 03:34:27;;;;;;;;;30.00;23.75;;;;;7.47;77.09;99711.69;5074067;28;45365;-69
2022/12/03 03:36:52;;;;;;;;;36.50;31.50;;;;;7.41;77.43;99706.31;5058019;28;46084;-74
2022/12/03 03:39:18;;;;;;;;;43.00;36.00;;;;;7.42;77.69;99713.31;5058028;28;45556;-69
2022/12/03 03:41:45;;;;;;;;;29.50;27.50;;;;;7.17;77.58;99664.94;5058251;28;45416;-69
2022/12/03 03:44:12;;;;;;;;;37.00;33.50;;;;;7.36;77.40;99703.59;5058401;28;45508;-70
2022/12/03 03:46:39;;;;;;;;;45.75;38.25;;;;;7.29;77.96;99698.19;5057819;28;46237;-69
2022/12/03 03:49:05;;;;;;;;;39.00;36.00;;;;;7.29;78.05;99693.84;5058088;28;45559;-69
2022/12/03 03:51:33;;;;;;;;;44.75;38.50;;;;;7.24;78.12;99694.56;5058281;28;45576;-69
2022/12/03 03:54:01;;;;;;;;;39.00;35.75;;;;;7.20;78.09;99695.28;5058195;28;45305;-72
2022/12/03 03:56:27;;;;;;;;;42.75;35.25;;;;;7.17;78.24;99688.31;5057992;28;45507;-70
2022/12/03 03:58:54;;;;;;;;;36.25;33.00;;;;;7.14;78.01;99701.19;5058010;28;45513;-70
2022/12/03 04:01:22;;;;;;;;;35.00;29.50;;;;;7.14;78.02;99698.59;5058312;28;46084;-72
2022/12/03 04:03:48;;;;;;;;;36.25;32.25;;;;;7.10;77.67;99699.34;5058287;28;45601;-67
2022/12/03 04:06:13;;;;;;;;;35.50;29.50;;;;;7.03;77.40;99695.69;5057788;28;45870;-68
2022/12/03 04:08:39;;;;;;;;;33.00;30.00;;;;;6.76;77.59;99673.25;5057935;28;45556;-68
2022/12/03 04:14:05;;;;;;;;;33.75;30.25;;;;;6.52;78.07;99688.88;5015561;28;45569;-68
2022/12/03 04:16:30;;;;;;;;;36.75;30.75;;;;;6.50;78.61;99700.94;5047847;28;46218;-68
2022/12/03 04:18:56;;;;;;;;;30.50;25.75;;;;;6.34;78.90;99693.47;5057835;28;45258;-67
2022/12/03 04:24:09;;;;;;;;;35.25;33.25;;;;;5.98;79.82;99681.91;5058186;28;45401;-68
2022/12/03 04:29:19;;;;;;;;;36.00;32.75;;;;;6.15;80.20;99689.41;5057252;28;45433;-71
2022/12/03 04:37:13;;;;;;;;;24.75;21.00;;;;;6.08;80.99;99679.66;5057284;28;45534;-69
2022/12/03 04:39:39;;;;;;;;;35.00;31.00;;;;;6.10;81.39;99693.53;5057540;28;45413;-68
2022/12/03 04:42:05;;;;;;;;;31.50;29.50;;;;;6.07;80.98;99680.47;5057814;28;45361;-68
2022/12/03 04:44:32;;;;;;;;;38.00;32.75;;;;;6.10;80.55;99677.97;5057480;28;45556;-68
2022/12/03 04:47:05;;;;;;;;;41.75;28.75;;;;;6.12;80.30;99681.50;5056961;28;46200;-68
2022/12/03 04:49:31;;;;;;;;;40.50;33.25;;;;;5.70;80.31;99617.84;5057180;28;45396;-70
2022/12/03 04:51:57;;;;;;;;;37.25;34.50;;;;;6.04;80.93;99670.88;5057082;28;45422;-67
2022/12/03 04:54:22;;;;;;;;;38.25;34.75;;;;;6.06;80.76;99669.22;5057097;28;45514;-68
2022/12/03 04:56:48;;;;;;;;;37.50;33.50;;;;;6.07;80.58;99670.09;5056661;28;45565;-70
2022/12/03 04:59:13;;;;;;;;;38.25;32.00;;;;;6.00;80.48;99671.59;5056850;28;45463;-69
2022/12/03 05:01:39;;;;;;;;;29.25;26.00;;;;;5.84;80.35;99640.78;5057400;28;45431;-70
2022/12/03 05:04:05;;;;;;;;;33.25;29.00;;;;;5.95;80.39;99675.75;5057339;28;45456;-68
2022/12/03 05:06:31;;;;;;;;;38.25;30.50;;;;;5.90;79.77;99669.50;5056904;28;46060;-69
2022/12/03 05:08:57;;;;;;;;;31.75;26.50;;;;;5.89;80.05;99683.28;5056899;28;45358;-69
2022/12/03 05:11:22;;;;;;;;;39.50;30.00;;;;;5.65;80.45;99634.97;5056838;28;45394;-69
2022/12/03 05:13:50;;;;;;;;;26.25;22.00;;;;;5.86;80.43;99668.50;5057044;28;45460;-68
2022/12/03 05:16:15;;;;;;;;;25.50;23.25;;;;;5.79;79.74;99645.81;5056869;28;45590;-69
2022/12/03 05:18:41;;;;;;;;;29.00;25.50;;;;;5.81;79.06;99666.56;5057225;28;45618;-68
2022/12/03 05:21:07;;;;;;;;;36.25;29.50;;;;;5.71;79.78;99662.78;5057205;28;45247;-68
2022/12/03 05:23:32;;;;;;;;;28.25;25.00;;;;;5.65;79.95;99658.28;5057204;28;45330;-73
2022/12/03 05:25:58;;;;;;;;;25.25;20.25;;;;;5.67;80.32;99661.81;5072247;28;46152;-68
2022/12/03 05:28:23;;;;;;;;;19.75;17.25;;;;;5.62;80.13;99665.94;5058520;28;45441;-74
2022/12/03 05:30:50;;;;;;;;;23.25;20.00;;;;;5.26;79.75;99619.75;5060414;28;45552;-68
2022/12/03 05:33:16;;;;;;;;;27.75;25.50;;;;;5.15;80.18;99611.59;5060426;28;45439;-67
2022/12/03 05:35:41;;;;;;;;;29.00;26.25;;;;;5.52;80.51;99662.13;5060472;28;45925;-68
2022/12/03 05:38:07;;;;;;;;;30.50;24.50;;;;;5.54;80.26;99655.28;5060446;28;45499;-67
2022/12/03 05:40:33;;;;;;;;;24.00;22.00;;;;;5.57;79.50;99654.50;5075841;28;45415;-67
2022/12/03 05:43:00;;;;;;;;;25.50;21.75;;;;;5.57;79.15;99655.41;5060241;28;45280;-68
2022/12/03 05:45:27;;;;;;;;;23.25;19.50;;;;;5.51;79.42;99659.47;5059949;28;45453;-67
2022/12/03 05:47:54;;;;;;;;;21.75;17.75;;;;;5.49;79.53;99662.03;5060018;28;45701;-68
2022/12/03 05:50:21;;;;;;;;;21.50;18.25;;;;;5.52;79.33;99659.53;5060052;28;45445;-68
2022/12/03 05:52:47;;;;;;;;;24.75;19.50;;;;;5.50;79.46;99658.59;5059957;28;45342;-68
2022/12/03 05:55:12;;;;;;;;;14.25;13.00;;;;;5.37;79.31;99653.78;5060261;28;45429;-67
2022/12/03 05:57:38;;;;;;;;;20.75;19.25;;;;;5.41;80.35;99657.38;5060267;28;45672;-75
2022/12/03 06:00:07;;;;;;;;;20.25;16.75;;;;;5.30;79.70;99636.28;5060145;28;45313;-73
2022/12/03 06:02:33;;;;;;;;;16.50;15.00;;;;;5.52;78.89;99653.47;5060203;28;45511;-69
2022/12/03 06:04:58;;;;;;;;;17.75;16.50;;;;;5.59;78.50;99650.28;5059759;28;45990;-68
2022/12/03 06:07:24;;;;;;;;;16.00;14.25;;;;;5.59;78.07;99639.94;5059914;28;45457;-69
2022/12/03 06:09:49;;;;;;;;;17.25;12.00;;;;;5.74;77.92;99650.81;5059641;28;45460;-68
2022/12/03 06:12:15;;;;;;;;;17.00;15.75;;;;;5.76;78.00;99635.31;5059705;28;45230;-70
2022/12/03 06:14:41;;;;;;;;;20.75;18.25;;;;;5.92;78.66;99654.88;5058576;28;46144;-73
2022/12/03 06:17:06;;;;;;;;;26.75;23.75;;;;;5.85;79.00;99632.16;5059412;28;45293;-69
2022/12/03 06:19:32;;;;;;;;;24.00;21.00;;;;;6.07;79.06;99649.34;5059861;28;45234;-71
2022/12/03 06:21:58;;;;;;;;;28.00;22.75;;;;;6.13;79.31;99647.84;5059850;28;45392;-68
2022/12/03 06:24:23;;;;;;;;;35.50;26.50;;;;;6.19;79.45;99644.59;5059376;28;46115;-70
2022/12/03 06:26:49;;;;;;;;;29.25;27.25;;;;;6.21;79.33;99648.13;5059270;28;45318;-71
2022/12/03 06:29:14;;;;;;;;;40.00;31.00;;;;;6.24;79.18;99645.59;5059855;28;45406;-69
2022/12/03 06:31:40;;;;;;;;;69.25;55.75;;;;;6.21;79.68;99642.03;5059675;28;45508;-70
2022/12/03 06:34:06;;;;;;;;;66.25;50.00;;;;;6.31;79.23;99647.59;5056921;28;46196;-70
2022/12/03 06:36:31;;;;;;;;;69.50;54.75;;;;;6.35;79.20;99640.78;5058385;28;45606;-69
2022/12/03 06:38:57;;;;;;;;;97.33;69.33;;;;;6.39;79.32;99640.06;5058015;28;45524;-73
2022/12/03 06:41:22;;;;;;;;;94.67;72.67;;;;;6.37;79.41;99633.94;5058367;28;45488;-68
2022/12/03 06:43:48;;;;;;;;;93.00;74.67;;;;;6.41;79.52;99635.78;5058078;28;46325;-72
2022/12/03 06:46:13;;;;;;;;;104.33;83.33;;;;;6.41;79.52;99634.91;5058319;28;45417;-71
2022/12/03 06:48:39;;;;;;;;;56.50;43.75;;;;;6.44;79.18;99632.41;5058374;28;45344;-68
2022/12/03 06:51:04;;;;;;;;;62.75;50.00;;;;;6.45;79.20;99637.66;5058628;28;45529;-72
2022/12/03 06:53:30;;;;;;;;;70.50;55.25;;;;;6.48;79.52;99632.53;5057945;28;45508;-69
2022/12/03 06:55:55;;;;;;;;;52.00;44.00;;;;;6.53;79.23;99636.19;5058169;28;45222;-68
2022/12/03 06:58:21;;;;;;;;;61.50;49.75;;;;;6.56;78.93;99631.09;5058423;28;45426;-72
2022/12/03 07:00:46;;;;;;;;;61.50;48.75;;;;;6.60;78.70;99626.84;5058203;28;45487;-68
2022/12/03 07:03:12;;;;;;;;;50.25;40.75;;;;;6.59;78.59;99624.25;5058119;28;45951;-68
2022/12/03 07:05:37;;;;;;;;;36.50;34.00;;;;;6.64;78.58;99633.03;5057750;28;45432;-69
2022/12/03 07:08:03;;;;;;;;;54.25;42.00;;;;;6.66;78.11;99626.16;5057853;28;45473;-74
2022/12/03 07:10:29;;;;;;;;;37.25;31.25;;;;;6.62;78.24;99617.41;5056663;28;45466;-67
2022/12/03 07:12:54;;;;;;;;;37.25;32.00;;;;;6.66;78.08;99623.56;5057704;28;46217;-69
2022/12/03 07:15:20;;;;;;;;;48.25;40.75;;;;;6.67;78.03;99622.75;5057461;28;45500;-67
2022/12/03 07:17:45;;;;;;;;;32.25;29.50;;;;;6.65;78.00;99627.91;5058108;28;45499;-70
2022/12/03 07:20:11;;;;;;;;;41.25;33.00;;;;;6.66;77.88;99623.56;5057926;28;45508;-71
2022/12/03 07:22:37;;;;;;;;;87.33;73.00;;;;;6.65;78.14;99621.84;5057653;28;47423;-67
2022/12/03 07:25:03;;;;;;;;;32.25;27.25;;;;;6.62;77.87;99622.59;5057770;28;45557;-73
2022/12/03 07:27:28;;;;;;;;;25.50;22.50;;;;;6.64;77.97;99614.84;5057791;28;45460;-67
2022/12/03 07:29:54;;;;;;;;;34.00;28.00;;;;;6.63;78.07;99607.94;5057786;28;45333;-76
2022/12/03 07:32:19;;;;;;;;;22.75;20.75;;;;;6.60;78.02;99613.88;5057329;28;45487;-71
2022/12/03 07:34:45;;;;;;;;;28.50;24.00;;;;;6.61;77.96;99609.59;5057784;28;45478;-70
2022/12/03 07:37:10;;;;;;;;;38.00;30.25;;;;;6.52;77.77;99592.88;5057765;28;46063;-76
2022/12/03 07:39:36;;;;;;;;;29.00;23.50;;;;;6.65;77.62;99608.84;5057851;28;45239;-73
2022/12/03 07:42:02;;;;;;;;;27.50;26.00;;;;;6.62;78.02;99609.63;5057351;28;45909;-70
2022/12/03 07:44:30;;;;;;;;;25.25;22.00;;;;;6.61;77.93;99602.69;5057229;28;45418;-75
2022/12/03 07:46:55;;;;;;;;;27.25;26.25;;;;;6.65;78.42;99603.66;5057471;28;45821;-76
2022/12/03 07:49:21;;;;;;;;;69.25;55.00;;;;;6.64;78.09;99602.75;5057250;28;45566;-74
2022/12/03 07:51:52;;;;;;;;;30.75;23.25;;;;;6.64;78.20;99602.75;5056039;28;45859;-69
2022/12/03 07:54:19;;;;;;;;;41.75;36.25;;;;;6.66;78.00;99597.63;5057244;28;45370;-74
2022/12/03 07:56:46;;;;;;;;;33.25;27.50;;;;;6.62;77.87;99594.03;5057326;28;45536;-69
2022/12/03 07:59:13;;;;;;;;;33.25;27.25;;;;;6.67;78.31;99602.88;5057340;28;45434;-68
2022/12/03 08:01:39;;;;;;;;;41.25;33.25;;;;;6.69;78.20;99601.19;5057056;28;46099;-68
2022/12/03 08:04:04;;;;;;;;;37.25;35.75;;;;;6.70;78.09;99597.75;5057332;28;45256;-70
2022/12/03 08:06:30;;;;;;;;;33.75;30.50;;;;;6.74;78.40;99602.22;5057120;28;45242;-68
2022/12/03 08:08:55;;;;;;;;;36.25;31.25;;;;;6.79;78.54;99597.16;5057156;28;45402;-67
2022/12/03 08:11:21;;;;;;;;;62.00;47.00;;;;;6.72;78.45;99574.44;5056586;28;45394;-66
2022/12/03 08:13:46;;;;;;;;;41.25;36.25;;;;;6.75;78.02;99585.81;5057092;28;45547;-67
2022/12/03 08:16:18;;;;;;;;;29.50;26.75;;;;;6.56;78.33;99542.88;5056903;28;45486;-70
2022/12/03 08:18:45;;;;;;;;;34.75;32.25;;;;;6.84;77.80;99573.94;5054444;28;45357;-72
2022/12/03 08:21:12;;;;;;;;;29.50;26.75;;;;;6.83;77.79;99582.56;5056876;28;46190;-75
2022/12/03 08:23:38;;;;;;;;;31.75;27.25;;;;;6.54;78.11;99544.50;5056676;28;45472;-75
2022/12/03 08:26:31;;;;;;;;;26.75;19.25;;;;;6.76;77.99;99581.50;5056576;28;45327;-73
2022/12/03 08:28:56;;;;;;;;;22.25;21.00;;;;;6.87;77.98;99584.41;5056756;28;45312;-67
2022/12/03 08:31:24;;;;;;;;;22.25;19.75;;;;;6.97;77.93;99581.25;5056602;28;45789;-72
2022/12/03 08:33:57;;;;;;;;;25.75;22.50;;;;;6.96;77.95;99575.19;5054697;28;45490;-74
2022/12/03 08:36:31;;;;;;;;;28.25;25.00;;;;;7.01;77.84;99574.44;5057460;28;45504;-76
2022/12/03 08:39:01;;;;;;;;;31.50;23.25;;;;;7.11;77.60;99579.03;5057599;28;45308;-75
2022/12/03 08:44:26;;;;;;;;;26.50;21.75;;;;;7.38;77.08;99573.72;5056395;28;45508;-72
2022/12/03 08:46:55;;;;;;;;;22.25;20.75;;;;;7.52;76.77;99571.47;5055623;28;45456;-70
2022/12/03 08:49:21;;;;;;;;;33.75;28.75;;;;;7.34;76.37;99530.31;5057364;28;45428;-74
2022/12/03 08:51:47;;;;;;;;;34.25;32.00;;;;;7.76;76.10;99581.66;5056803;28;46657;-76
2022/12/03 08:54:18;;;;;;;;;48.25;39.75;;;;;7.54;75.61;99530.81;5057065;28;45414;-75
2022/12/03 08:56:44;;;;;;;;;33.75;31.50;;;;;7.75;75.38;99553.91;5056811;28;45306;-74
2022/12/03 08:59:27;;;;;;;;;25.00;24.50;;;;;8.05;74.69;99587.59;5057106;28;45362;-79
2022/12/03 09:01:53;;;;;;;;;41.75;36.25;;;;;8.10;74.28;99592.91;5056401;28;46834;-72
2022/12/03 09:04:29;;;;;;;;;23.00;20.00;;;;;8.16;73.47;99593.94;5056344;28;45501;-76
2022/12/03 09:06:56;;;;;;;;;17.75;16.50;;;;;8.17;73.16;99580.06;5056836;28;45321;-69
2022/12/03 09:09:22;;;;;;;;;14.25;12.50;;;;;8.24;73.61;99582.84;5056900;28;45419;-72
2022/12/03 09:11:49;;;;;;;;;18.50;13.00;;;;;8.33;73.17;99581.31;5057112;28;45857;-74
2022/12/03 09:14:16;;;;;;;;;18.50;18.25;;;;;8.44;73.02;99580.75;5056549;28;45191;-70
2022/12/03 09:16:42;;;;;;;;;18.00;16.50;;;;;8.57;72.37;99580.16;5056736;28;45424;-73
2022/12/03 09:19:08;;;;;;;;;29.50;27.00;;;;;8.68;72.25;99583.00;5056253;28;45388;-68
2022/12/03 09:21:33;;;;;;;;;33.25;28.75;;;;;8.70;72.18;99576.13;5055150;28;45425;-69
2022/12/03 09:23:59;;;;;;;;;37.00;30.50;;;;;8.80;71.96;99569.38;5055883;28;45450;-68
2022/12/03 09:26:25;;;;;;;;;25.50;24.25;;;;;8.81;71.78;99577.22;5055919;28;45414;-71
2022/12/03 09:28:51;;;;;;;;;26.75;23.75;;;;;8.83;71.32;99575.50;5056417;28;45249;-69
2022/12/03 09:31:17;;;;;;;;;26.25;22.25;;;;;8.83;71.59;99578.13;5055610;28;46222;-71
2022/12/03 09:33:42;;;;;;;;;31.50;29.00;;;;;8.78;72.13;99578.88;5055631;28;45385;-74
2022/12/03 09:36:08;;;;;;;;;26.25;22.50;;;;;8.74;72.59;99564.91;5055298;28;45384;-69
2022/12/03 09:38:33;;;;;;;;;29.50;26.50;;;;;8.83;72.71;99578.13;5055348;28;45393;-70
2022/12/03 09:40:59;;;;;;;;;26.75;24.00;;;;;8.87;72.57;99579.97;5055720;28;46384;-71
2022/12/03 09:43:31;;;;;;;;;27.00;23.00;;;;;8.88;72.50;99573.91;5055663;28;45669;-73
2022/12/03 09:45:57;;;;;;;;;22.50;17.00;;;;;8.89;72.29;99572.16;5055462;28;45851;-72
2022/12/03 09:48:23;;;;;;;;;23.50;22.50;;;;;8.88;71.93;99576.50;5056792;28;45875;-82
2022/12/03 09:50:49;;;;;;;;;21.50;20.00;;;;;8.65;71.95;99538.66;5055511;28;45417;-80
2022/12/03 09:53:19;;;;;;;;;24.50;23.00;;;;;8.84;71.93;99576.41;5055015;28;45840;-82
2022/12/03 09:55:46;;;;;;;;;30.00;26.00;;;;;8.83;72.25;99570.31;5056731;28;45523;-81
2022/12/03 09:58:17;;;;;;;;;41.00;34.00;;;;;8.81;71.93;99572.00;5056456;28;45475;-80
2022/12/03 10:00:48;;;;;;;;;23.25;22.75;;;;;8.79;72.34;99575.44;5056045;28;45412;-80
2022/12/03 10:03:16;;;;;;;;;19.75;17.00;;;;;8.80;71.78;99574.59;5056115;28;45720;-81
2022/12/03 10:05:42;;;;;;;;;22.75;21.75;;;;;8.70;71.74;99566.56;5056263;28;45425;-79
2022/12/03 10:08:10;;;;;;;;;37.25;33.50;;;;;8.84;71.79;99584.22;5056507;28;45310;-80
2022/12/03 10:10:38;;;;;;;;;30.25;27.75;;;;;8.88;71.95;99576.50;5056049;28;46088;-80
2022/12/03 10:13:05;;;;;;;;;23.50;21.25;;;;;8.95;72.18;99586.22;5056130;28;45558;-80
2022/12/03 10:15:31;;;;;;;;;22.00;19.00;;;;;9.01;72.52;99579.34;5058121;28;45486;-80
2022/12/03 10:17:57;;;;;;;;;33.50;31.00;;;;;8.93;72.40;99554.03;5059989;28;45485;-69
2022/12/03 10:20:24;;;;;;;;;29.50;22.25;;;;;9.15;72.54;99585.72;5059563;28;46162;-80
2022/12/03 10:22:50;;;;;;;;;24.75;22.75;;;;;9.02;72.62;99542.06;5058754;28;45551;-79
2022/12/03 10:25:19;;;;;;;;;23.25;22.75;;;;;9.33;71.94;99575.69;5057580;28;45337;-74
2022/12/03 10:28:04;;;;;;;;;21.50;19.00;;;;;9.43;71.71;99576.75;5058304;28;45356;-76
2022/12/03 10:30:30;;;;;;;;;16.25;10.50;;;;;9.44;71.44;99583.69;5057328;28;45361;-77
2022/12/03 10:33:01;;;;;;;;;16.25;15.25;;;;;9.50;71.15;99577.72;5057926;28;45587;-79
2022/12/03 10:35:39;;;;;;;;;21.25;17.50;;;;;9.51;71.00;99567.34;5057583;28;45560;-68
2022/12/03 10:38:18;;;;;;;;;37.50;33.25;;;;;9.63;70.58;99573.59;5056153;28;45321;-78
2022/12/03 10:40:45;;;;;;;;;24.25;23.25;;;;;9.66;70.40;99568.44;5055894;28;45463;-78
2022/12/03 10:43:16;;;;;;;;;24.50;24.50;;;;;9.75;69.87;99569.50;5057023;28;45469;-79
2022/12/03 10:45:44;;;;;;;;;21.75;19.75;;;;;9.78;70.05;99573.88;5057398;28;45433;-79
2022/12/03 10:48:18;;;;;;;;;18.25;16.75;;;;;9.79;69.82;99577.34;5049540;28;45476;-77
2022/12/03 10:50:56;;;;;;;;;17.50;15.75;;;;;9.75;70.39;99569.50;5046042;28;46506;-78
2022/12/03 10:53:26;;;;;;;;;25.75;24.25;;;;;9.76;70.73;99571.25;5053367;28;46089;-80
2022/12/03 10:55:58;;;;;;;;;26.75;23.50;;;;;9.75;70.89;99566.03;5053907;28;45630;-77
2022/12/03 10:58:29;;;;;;;;;36.75;29.50;;;;;9.72;71.20;99560.75;5050089;28;45354;-80
2022/12/03 11:00:57;;;;;;;;;28.25;26.00;;;;;9.51;71.26;99537.75;5049839;28;46159;-80
2022/12/03 11:03:25;;;;;;;;;27.25;24.00;;;;;9.64;70.74;99558.00;5056778;28;45511;-78
2022/12/03 11:05:52;;;;;;;;;27.25;25.00;;;;;9.66;70.25;99561.50;5052164;28;45401;-77
2022/12/03 11:08:21;;;;;;;;;28.00;27.50;;;;;9.62;69.99;99549.25;5042132;28;45365;-80
2022/12/03 11:11:12;;;;;;;;;30.50;25.50;;;;;9.64;70.62;99554.50;5046784;28;46113;-77
2022/12/03 11:13:37;;;;;;;;;20.25;17.75;;;;;9.68;70.68;99548.50;5052680;28;45601;-80
2022/12/03 11:16:04;;;;;;;;;15.75;14.00;;;;;9.72;70.86;99547.69;5051409;28;45744;-79
2022/12/03 11:18:36;;;;;;;;;21.50;19.50;;;;;9.78;70.27;99547.81;5052524;28;45457;-78
2022/12/03 11:21:06;;;;;;;;;11.25;10.50;;;;;9.85;70.10;99546.19;5053781;28;46029;-77
2022/12/03 11:23:43;;;;;;;;;9.00;8.00;;;;;9.90;70.11;99540.16;5045210;28;45471;-79
2022/12/03 11:26:32;;;;;;;;;27.00;22.75;;;;;9.95;70.03;99538.53;5043093;28;45516;-71
2022/12/03 11:28:58;;;;;;;;;28.25;25.75;;;;;10.00;70.15;99535.13;5039909;28;45219;-74
2022/12/03 11:31:43;;;;;;;;;28.50;25.50;;;;;10.06;69.99;99528.25;5053925;28;46365;-77
2022/12/03 11:34:18;;;;;;;;;57.25;44.00;;;;;10.17;69.49;99523.22;5048468;28;45486;-77
2022/12/03 11:37:08;;;;;;;;;32.75;24.75;;;;;10.24;69.06;99517.22;5044609;28;45551;-78
2022/12/03 11:39:49;;;;;;;;;15.50;13.25;;;;;10.35;67.26;99514.81;5065361;28;45603;-78
2022/12/03 11:42:27;;;;;;;;;41.25;34.25;;;;;10.45;67.50;99516.69;5040195;28;45526;-76